MyTimes logo

TIMES

Webb Imagery

31/01/2009
Channel Challenge
550m Swim / 2.0km Run

(Click on competitor name to view personalised results)

Name
Race #
Category
Time
(h:mm:ss)
Avg Speed
km/hr
OAll
Place
Cat
Place
COOPER Brett#203Senior Male0:11:03 13.8 11
SCHUSTER Brent#192Senior Male0:11:19 13.5 22
RHODES Jamie#45Senior Male0:11:54 12.9 33
SMITH Ryan#615Junior Male0:11:56 12.8 41
WRIGHT Benjamin#193Senior Male0:12:23 12.4 54
WAITE Steven#100Senior Male0:12:28 12.3 65
ROWE Mark#32Senior Male0:12:31 12.2 76
KEAYS Matthew#92Senior Male0:12:49 11.9 87
BUSCHKUEHL Nathan#754Junior Male0:12:55 11.8 92
GUILLE Tim#1Senior Male0:13:03 11.7 108
POLIZZI Alex#104Senior Male0:13:12 11.6 119
ANDREW Chris#63640-49 Male0:13:17 11.5 121
PLANT Luke#601Junior Male0:13:19 11.5 133
ARMSTRONG Graeme#767Male 50+0:13:33 11.3 141
DEVESON Grace#335Junior Female0:13:38 11.2 151
THOMAS Luke#155Senior Male0:13:51 11 1610
BAYLEY Abigail#402Senior Female0:13:57 11 171
WACHTER Aurel#63240-49 Male0:13:59 10.9 182
MOUNSEY Mark-Barne#62040-49 Male0:14:01 10.9 193
WATTS Jacqui#358Senior Female0:14:04 10.9 202
BATT Corey#713Junior Male0:14:05 10.9 214
BUTT Chloe#329Senior Female0:14:07 10.8 223
RAINEY Peter#73440-49 Male0:14:07 10.8 234
FLEISNER Rob#62740-49 Male0:14:08 10.8 245
ROWLAND Robert#69840-49 Male0:14:11 10.8 256
HOWARTH Mark#761Male 50+0:14:12 10.8 262
CARNIE Jared#604Junior Male0:14:15 10.7 275
DALLINGER Andrew#52Senior Male0:14:18 10.7 2811
GOGOLL Damien#81Senior Male0:14:23 10.6 2912
EVANS Brad#68240-49 Male0:14:25 10.6 307
BUSCHKUEHL David#75540-49 Male0:14:25 10.6 318
STOCK Adam#115Senior Male0:14:34 10.5 3213
ZERVAS Stephanie#484Senior Female0:14:35 10.5 334
AITKEN Harry#141Senior Male0:14:39 10.4 3414
CORBETT Jim#71640-49 Male0:14:41 10.4 359
WILLIAMS Kellie#443Senior Female0:14:44 10.4 365
YUSKO Bill#723Male 50+0:14:44 10.4 373
SOMMERVILLE Barny#213Senior Male0:14:47 10.3 3815
PARKINSON Samuel#211Senior Male0:14:51 10.3 3916
ESSING Wayne#69540-49 Male0:14:51 10.3 4010
UHLICH Rhys#209Senior Male0:14:52 10.3 4117
CAPLE Alex#172Senior Male0:14:52 10.3 4218
WILSON Mark#197Senior Male0:14:57 10.2 4319
OLDEN Josh#173Senior Male0:14:58 10.2 4420
DRISCOLL Ben#62Senior Male0:14:58 10.2 4521
ROLLAND Thierry#72740-49 Male0:14:59 10.2 4611
CROUGH Chris#182Senior Male0:15:00 10.2 4722
TILLEY Justin#130Senior Male0:15:03 10.2 4823
CROFT Greg#63040-49 Male0:15:03 10.2 4912
GALBRAITH Dana#773Male 50+0:15:05 10.1 504
BROWN Christian#163Senior Male0:15:08 10.1 5124
NEWTON Rodney Lan#61840-49 Male0:15:09 10.1 5213
WALLER Mark#16Senior Male0:15:10 10.1 5325
BRADLEY Amy#360Senior Female0:15:17 10 546
RAINEY Helen#457Senior Female0:15:19 10 557
TYLER Jonathan#30Senior Male0:15:20 10 5626
LOVE Nathan#756Junior Male0:15:20 10 576
DALLINGER Chris#201Senior Male0:15:21 10 5827
PIEPER Daniel#110Senior Male0:15:22 10 5928
BUTHER Chris#7Senior Male0:15:26 9.9 6029
MAYERS Stuart#125Senior Male0:15:28 9.9 6130
DILIN Justin#122Senior Male0:15:31 9.9 6231
CONNELL Patrick#608Junior Male0:15:31 9.9 637
HEWETT Dean#691Junior Male0:15:31 9.9 648
WRIGHT Carl#136Senior Male0:15:32 9.8 6532
WEBB Danni#496Senior Female0:15:34 9.8 668
FERGUSON Andrew#70Senior Male0:15:35 9.8 6733
MATHIES Stewart#175Senior Male0:15:39 9.8 6834
HOMER Ivan#63440-49 Male0:15:41 9.8 6914
SULLENBERGER Chesley#180Senior Male0:15:42 9.7 7035
JENNER Steven#199Senior Male0:15:43 9.7 7136
THOMAS Andrew#77440-49 Male0:15:43 9.7 7215
DAVIE Krystal#500Junior Female0:15:45 9.7 732
LANGLEY Mark#606Junior Male0:15:45 9.7 749
CSAKUARI Jarrod#196Senior Male0:15:48 9.7 7537
STEWART Kimberley#349Senior Female0:15:48 9.7 769
MANTEIT Alexander#703Junior Male0:15:50 9.7 7710
FULLER James#38Senior Male0:15:51 9.7 7838
HARRIS Mark#68740-49 Male0:15:52 9.6 7916
SKETCHLEY Mark#95Senior Male0:15:56 9.6 8039
NICHOLSON James#176Senior Male0:15:57 9.6 8140
MATTHEWS Jack#44Senior Male0:15:59 9.6 8241
HUTCHINSON Warwick#63940-49 Male0:15:59 9.6 8317
LOCKWOOD Ben#78Senior Male0:16:00 9.6 8442
RUMBERG Michael#186Senior Male0:16:02 9.5 8543
O'CONNELL Sarah#447Senior Female0:16:05 9.5 8610
MANTEIT Michael#702Junior Male0:16:06 9.5 8711
CININAS Travis#679Junior Male0:16:07 9.5 8812
VERNON Beau#164Senior Male0:16:08 9.5 8944
DUNCAN Michael P#20Senior Male0:16:08 9.5 9045
WILLIAMSON Tim#41Senior Male0:16:09 9.5 9146
BOND Marcus#67Senior Male0:16:11 9.5 9247
STEWART Alastair#717Junior Male0:16:12 9.4 9313
HARRISON Hamish#214Senior Male0:16:13 9.4 9448
FORTINGTON Andrea#375Senior Female0:16:13 9.4 9511
CLINTON Bradley#144Senior Male0:16:14 9.4 9649
MC CALL Rod#72240-49 Male0:16:14 9.4 9718
GOSPER Liz#47640-49 Female0:16:15 9.4 981
O'MEARA Amy#361Senior Female0:16:16 9.4 9912
HOLMES Ben#55Senior Male0:16:18 9.4 10050
NIXON Bo#40Senior Male0:16:18 9.4 10151
CONNELL Michael#63340-49 Male0:16:18 9.4 10219
DEMKO Marcus#82Senior Male0:16:22 9.3 10352
MACLEOD Julian#86Senior Male0:16:23 9.3 10453
COATS Callum#200Senior Male0:16:24 9.3 10554
MARTIN Brian#74540-49 Male0:16:27 9.3 10620
CROWE Susie#468Junior Female0:16:28 9.3 1073
LEITH Ashley#148Senior Male0:16:29 9.3 10855
STEWART Tia#327Junior Female0:16:32 9.3 1094
BORN Daniel#108Junior Male0:16:32 9.3 11014
MC FEE Andy#157Senior Male0:16:33 9.2 11156
BURGGRAAFF Andrew#62640-49 Male0:16:34 9.2 11221
SMITH Aaron#3Senior Male0:16:35 9.2 11357
MC CARTHY Kane#779Junior Male0:16:37 9.2 11415
BYRNE Stephen#662Male 50+0:16:37 9.2 1155
ALDERSON Allan#746Male 50+0:16:39 9.2 1166
WALDER Mitch#127Senior Male0:16:40 9.2 11758
BUTTIFANT David#75740-49 Male0:16:40 9.2 11822
BARNARD Rebecca#382Senior Female0:16:41 9.2 11913
CLOHERTY Rick#84Senior Male0:16:42 9.2 12059
BAGULEY Malcolm#188Senior Male0:16:42 9.2 12160
GRANT Warren#668Male 50+0:16:42 9.2 1227
CANN Lara#339Senior Female0:16:44 9.1 12314
O'HALLORAN Brett#76Senior Male0:16:46 9.1 12461
SAUNDERS Prue#485Senior Female0:16:49 9.1 12515
HEWETT Noel#69040-49 Male0:16:50 9.1 12623
SELLER Nick#602Senior Male0:16:51 9.1 12762
CHISHOLM Andy#146Senior Male0:16:51 9.1 12863
KELLY Chris#14Senior Male0:16:52 9.1 12964
BALMER Iain#118Senior Male0:16:52 9.1 13065
MANTEIT Mark#704Male 50+0:16:53 9.1 1318
HAYNES Brayden#177Senior Male0:16:56 9 13266
NICHOLL Trent#11Senior Male0:16:56 9 13367
CHIPPERFIELD Kate#385Senior Female0:16:56 9 13416
BURT Melissa#497Senior Female0:16:56 9 13517
GLENNIE John#189Senior Male0:16:57 9 13668
VALENA Rex#735Male 50+0:16:57 9 1379
LUBBERINK Herman#64040-49 Male0:16:58 9 13824
HAYES Albert#62340-49 Male0:16:58 9 13925
THOMAS Mark#145Senior Male0:16:59 9 14069
O'CONNELL Arnaliss#372Senior Female0:16:59 9 14118
READ John#21Senior Male0:17:00 9 14270
CLARK Ed#36Senior Male0:17:00 9 14371
LEA Michael#28Senior Male0:17:00 9 14472
HEPELL Jamin#215Senior Male0:17:01 9 14573
MARTIN David#10Senior Male0:17:02 9 14674
BOURKE Michael#18Senior Male0:17:04 9 14775
COLLINS John#68Senior Male0:17:04 9 14876
BOWERS Erin#389Senior Female0:17:04 9 14919
BOURKE Chris#50Senior Male0:17:06 8.9 15077
MCKENZIE David#26Senior Male0:17:09 8.9 15178
GRENVILLE Jamie#56Senior Male0:17:10 8.9 15279
MATTHEWS Aaron#132Senior Male0:17:10 8.9 15380
BEHRSIN John#694Male 50+0:17:10 8.9 15410
TYLER Mike#665Male 50+0:17:11 8.9 15511
ALLEN Sarah#342Senior Female0:17:13 8.9 15620
WOODHOUSE Christina#406Senior Female0:17:14 8.9 15721
STINEAR Tim#62540-49 Male0:17:15 8.9 15826
BROWN Cameron#66Senior Male0:17:16 8.9 15981
SHALDERS Mark#87Senior Male0:17:19 8.8 16082
BURSTON Mike#60Senior Male0:17:19 8.8 16183
PRYOR Brendan#205Senior Male0:17:20 8.8 16284
TAYLOR Matilda#397Senior Female0:17:20 8.8 16322
SMITH Liam#613Junior Male0:17:20 8.8 16416
WILLOCKS Matthew#120Senior Male0:17:23 8.8 16585
WILLIAMSON David#158Senior Male0:17:23 8.8 16686
CONNELL Lachie#605Junior Male0:17:23 8.8 16717
MC GRATH Joe#204Senior Male0:17:25 8.8 16887
MARSHALL Luke#137Senior Male0:17:26 8.8 16988
MANSFIELD Daniel#23Senior Male0:17:26 8.8 17089
RIELLY Debbie#48640-49 Female0:17:26 8.8 1712
COURT Sam#2Senior Male0:17:27 8.8 17290
PRYOR Anthony#150Senior Male0:17:27 8.8 17391
WOOD Rich#156Senior Male0:17:28 8.8 17492
FERGUSON Paul#195Senior Male0:17:28 8.8 17593
COLE Nicholas#68540-49 Male0:17:28 8.8 17627
MOUNTER Brent#91Senior Male0:17:29 8.8 17794
MAY Kevin#15Senior Male0:17:29 8.8 17895
KAY Elizabeth#380Senior Female0:17:30 8.7 17923
OLSEN Andrea#424Senior Female0:17:31 8.7 18024
DALVEAN Trenton#57Senior Male0:17:33 8.7 18196
VERNON Zak#753Junior Male0:17:34 8.7 18218
COLOMB Kristie#377Senior Female0:17:36 8.7 18325
BARNES John#663Male 50+0:17:36 8.7 18412
IRELAND Marnie#356Senior Female0:17:38 8.7 18526
DAVIE Angie#30440-49 Female0:17:38 8.7 1863
CHAPMAN Courtney#328Junior Female0:17:40 8.7 1875
BLANKENSTEIN Tim#6Senior Male0:17:41 8.7 18897
TURNER Peter#714Male 50+0:17:41 8.7 18913
HOWARTH Terry#169Senior Male0:17:42 8.6 19098
VISAPAA Andre#96Senior Male0:17:43 8.6 19199
WILLIAMS Lloyd#161Senior Male0:17:43 8.6 192100
BOURKE Lucy#469Senior Female0:17:43 8.6 19327
LEVERSHA David#742Male 50+0:17:46 8.6 19414
MORGAN Natailie#475Senior Female0:17:47 8.6 19528
DAVIES Ian#179Senior Male0:17:49 8.6 196101
AXFORD Brad#58Senior Male0:17:51 8.6 197102
PLANT Cassie#425Senior Female0:17:53 8.6 19829
KAYE-HELMOT Georgia#498Junior Female0:17:54 8.5 1996
BOURKE Steve#69Senior Male0:17:56 8.5 200103
GUBBINS Tom#699Junior Male0:17:56 8.5 20119
MURPHY Gary#48Senior Male0:17:58 8.5 202104
GOOLEY Aaron#22Senior Male0:17:58 8.5 203105
FLEISNER Paul#660Male 50+0:17:59 8.5 20415
DAVIE Jasmine#499Junior Female0:18:01 8.5 2057
CROWE Damien#750Male 50+0:18:02 8.5 20616
CROFT Baden#607Junior Male0:18:02 8.5 20720
WOODHOUSE Nigel#102Senior Male0:18:03 8.5 208106
LENNE Heath#5Senior Male0:18:03 8.5 209107
THOMPSON David#63840-49 Male0:18:03 8.5 21028
BALDING Rachel#482Senior Female0:18:04 8.5 21130
MORGAN Briony#429Senior Female0:18:06 8.5 21231
BAMBERY Luke#71Senior Male0:18:07 8.4 213108
MC INDOE Kayla#461Senior Female0:18:07 8.4 21432
RIORDAN Scott#121Senior Male0:18:08 8.4 215109
BILL Greg#168Senior Male0:18:09 8.4 216110
DARKER Sarah#422Senior Female0:18:09 8.4 21733
GARGAN Bridget#458Senior Female0:18:09 8.4 21834
IGLESIAS Philip#109Senior Male0:18:10 8.4 219111
CAMERON Jane#40440-49 Female0:18:11 8.4 2204
WHITLA James#76640-49 Male0:18:11 8.4 22129
DUNCAN Michael#17Senior Male0:18:12 8.4 222112
CROWE Jessica#467Senior Female0:18:15 8.4 22335
MC DONALD Hugh#140Senior Male0:18:17 8.4 224113
LANDON Mark#72840-49 Male0:18:17 8.4 22530
DISTON Ashlee#441Junior Female0:18:19 8.4 2268
HILL Zac#720Junior Male0:18:19 8.4 22721
HAMMOND Scott#191Senior Male0:18:20 8.3 228114
WALKER Paul#212Senior Male0:18:21 8.3 229115
BOYD Paul#166Senior Male0:18:21 8.3 230116
TEMPLAR Anthony#59Senior Male0:18:22 8.3 231117
VAN OOSTEN Yolande#359Senior Female0:18:24 8.3 23236
DRISCOLL Melanie#369Senior Female0:18:26 8.3 23337
DENNIS Ben#133Senior Male0:18:28 8.3 234118
SMITH James#126Senior Male0:18:29 8.3 235119
TENNANT Stephanie#510Senior Female0:18:29 8.3 23638
ANDREWS Michael#88Senior Male0:18:30 8.3 237120
JESSE Andy#39Senior Male0:18:31 8.3 238121
SYMONS Tim#194Senior Male0:18:32 8.3 239122
MOOORE Hayden#119Senior Male0:18:32 8.3 240123
KOOLE Shannon#105Senior Male0:18:33 8.2 241124
O'CONNELL Michael#54Senior Male0:18:34 8.2 242125
POTOCNIK Lily#332Junior Female0:18:36 8.2 2439
VANDERBEEK Rachel#326Junior Female0:18:37 8.2 24410
TAYLOR Cheryl#39840-49 Female0:18:37 8.2 2455
MAIER David#71540-49 Male0:18:37 8.2 24631
WATERSON David#135Senior Male0:18:39 8.2 247126
BROTHWELL Tam#348Senior Female0:18:39 8.2 24839
VERSTEEGE Leanne#489Senior Female0:18:39 8.2 24940
MANNING Simon#67740-49 Male0:18:41 8.2 25032
WILLIAMS Dwayne#160Senior Male0:18:42 8.2 251127
FISHER Kevin#77240-49 Male0:18:43 8.2 25233
BURKE Richard#94Senior Male0:18:44 8.2 253128
WOODWARD Andrew#73740-49 Male0:18:44 8.2 25434
DODD Jenny#31040-49 Female0:18:45 8.2 2556
DAFF Geoff#681Male 50+0:18:45 8.2 25617
DOKERTY Daniel#51Senior Male0:18:46 8.2 257129
CHANDLER Mark#101Senior Male0:18:48 8.1 258130
WATERSON Michael#149Senior Male0:18:50 8.1 259131
LEA Trevor#740Male 50+0:18:50 8.1 26018
TURNER Bridget#408Junior Female0:18:52 8.1 26111
WRIGHT Ashley#111Senior Male0:18:53 8.1 262132
MACLAREN Lynne#50240-49 Female0:18:53 8.1 2637
FURNESS Jodie#383Senior Female0:18:55 8.1 26441
O'SHANNESSY Peter#752Male 50+0:18:55 8.1 26519
SCOTT Beth#508Junior Female0:18:56 8.1 26612
WEINER Marc#71940-49 Male0:18:58 8.1 26735
JONGS Mark#75940-49 Male0:18:58 8.1 26836
HOFSTEE Marc#112Senior Male0:18:59 8.1 269133
BEATTIE Kasey#450Senior Female0:19:00 8.1 27042
HAIN Jacqui#415Senior Female0:19:00 8.1 27143
HEINZE Dirk#53Senior Male0:19:06 8 272134
O'SULLIVAN Janine#344Senior Female0:19:07 8 27344
FITZGERALD Amy#364Senior Female0:19:07 8 27445
GARRETT David#159Senior Male0:19:08 8 275135
HUNT Greg#67040-49 Male0:19:09 8 27637
SAUNDERS Allan#731Male 50+0:19:10 8 27720
MERCER Steve#73840-49 Male0:19:12 8 27838
MALIOS Todd#77740-49 Male0:19:13 8 27939
O'CONNOR Andrew#61740-49 Male0:19:14 8 28040
CARSON Anthony#138Senior Male0:19:15 7.9 281136
HOMER Jack#609Junior Male0:19:17 7.9 28222
LEDDIN Peter#62140-49 Male0:19:19 7.9 28341
SMITH Michael#124Senior Male0:19:21 7.9 284137
EMERY Mick#655Male 50+0:19:23 7.9 28521
RAWARD Michael#117Senior Male0:19:24 7.9 286138
CAPLE Sally#478Senior Female0:19:25 7.9 28746
DUNNE Jerome#47Senior Male0:19:27 7.9 288139
SCHMIDT Damien#75Senior Male0:19:27 7.9 289140
SURACE Rory#33Senior Male0:19:28 7.9 290141
URBANO Steven#167Senior Male0:19:28 7.9 291142
CLEMENTSON Brad#79Senior Male0:19:28 7.9 292143
WILDES John#61640-49 Male0:19:28 7.9 29342
DWYER Ryan#775Junior Male0:19:31 7.8 29423
GLEESON Brad#103Senior Male0:19:32 7.8 295144
LEVERSHA Lyn#454Female 50+0:19:33 7.8 2961
JORDAN Thomas#171Senior Male0:19:35 7.8 297145
STAFFORD Rachel#405Senior Female0:19:36 7.8 29847
ANTHONY Michael#61940-49 Male0:19:37 7.8 29943
BROWN Sean#97Senior Male0:19:38 7.8 300146
CAPLE Eliza#479Senior Female0:19:38 7.8 30148
LEECH Mark#49Senior Male0:19:40 7.8 302147
O'DONOHUE Jacob#611Junior Male0:19:41 7.8 30324
O'DONOHUE Mark#63540-49 Male0:19:41 7.8 30444
REEVES Philip#19Senior Male0:19:42 7.8 305148
COUCH Fraser#710Junior Male0:19:42 7.8 30625
SKIDMORE Peter#686Male 50+0:19:47 7.7 30722
BEHRSIN Elyce#437Senior Female0:19:51 7.7 30849
WILLMOTT Rebecca#442Senior Female0:19:52 7.7 30950
COMMERFORD Peter#696Male 50+0:19:52 7.7 31023
KING Matthew#153Senior Male0:19:53 7.7 311149
BUTTERWORTH Karri#426Senior Female0:19:55 7.7 31251
JENKINS Steven#183Senior Male0:19:59 7.7 313150
COLLINS Dan#208Senior Male0:20:03 7.6 314151
WATER Melanie#374Senior Female0:20:03 7.6 31552
SHAW Aaron#123Senior Male0:20:04 7.6 316152
DOUGLAS Meaghan#333Junior Female0:20:04 7.6 31713
SUTHERLAND Michael#198Senior Male0:20:05 7.6 318153
FLETCHER Michael#70740-49 Male0:20:05 7.6 31945
KISLER Jenny#471Senior Female0:20:06 7.6 32053
CHRISTENSEN Brent#63Senior Male0:20:10 7.6 321154
HARRIS Michelle#384Senior Female0:20:11 7.6 32254
HARMER Blake#733Junior Male0:20:11 7.6 32326
MARUM Justin#490Senior Female0:20:12 7.6 32455
LITTLE Nathan#216Senior Male0:20:14 7.6 325155
MORRISON Kerry#507Female 50+0:20:14 7.6 3262
MATTHEWS Robert#664Male 50+0:20:15 7.6 32724
VAN DER NAGEL Helen#323Female 50+0:20:16 7.5 3283
PARTON Shaun#71240-49 Male0:20:16 7.5 32946
RYAN Chris#147Senior Male0:20:18 7.5 330156
CREAN Peter#651Male 50+0:20:18 7.5 33125
ADAMS Courtney#376Senior Female0:20:19 7.5 33256
NORRIS Mark#69240-49 Male0:20:21 7.5 33347
PEMBERTON Mark#187Senior Male0:20:22 7.5 334157
NICHOLSON Garry#765Male 50+0:20:22 7.5 33526
GARDNER Megan *#336Senior Female0:20:23 7.5 33657
GROLBY Mitchell#721Junior Male0:20:23 7.5 33727
SMITH Dylan#672Junior Male0:20:24 7.5 33828
EASTHAM Luke#131Senior Male0:20:25 7.5 339158
VELLIN Sarah#444Junior Female0:20:25 7.5 34014
FERGIE Fleur#494Senior Female0:20:27 7.5 34158
ADAMS Murray#666Male 50+0:20:27 7.5 34227
AVAGE Ian#63140-49 Male0:20:27 7.5 34348
STAMMERS Paul#89Senior Male0:20:29 7.5 344159
BIESBROEK Elise#346Senior Female0:20:29 7.5 34559
PATERSON Wade#142Senior Male0:20:32 7.5 346160
GRAMMISCH Mark#178Senior Male0:20:32 7.5 347161
HUNG Pui-Shan#462Senior Female0:20:34 7.4 34860
STELZER Hermann#674Male 50+0:20:34 7.4 34928
WINSTANLEY Benjamin#741Junior Male0:20:36 7.4 35029
SIBLY Clare#365Senior Female0:20:38 7.4 35161
MAY Richard#76240-49 Male0:20:40 7.4 35249
HARRIS Simone#403Junior Female0:20:47 7.4 35315
ANDERS Tully#689Junior Male0:20:47 7.4 35430
SPITERI Maverick#62840-49 Male0:20:47 7.4 35550
VAUGHAN Gabrielle#481Senior Female0:20:48 7.4 35662
EGAN Deb#42840-49 Female0:20:48 7.4 3578
LOGAN Justin#13Senior Male0:20:51 7.3 358162
TAYLOR Scott#31Senior Male0:20:52 7.3 359163
HOMER Max#610Junior Male0:20:53 7.3 36031
STANDISH Lyndal#477Senior Female0:20:54 7.3 36163
SMITH Harriet#504Junior Female0:20:54 7.3 36216
SMITH Shannon#106Senior Male0:20:55 7.3 363164
PARSONS Eddie#206Senior Male0:20:55 7.3 364165
WILLIAMS Peter#71140-49 Male0:20:55 7.3 36551
HUMPHRYS Bronwyn#330Junior Female0:20:56 7.3 36617
COUTTS Alex#207Senior Male0:20:57 7.3 367166
DAFF Jessica#470Senior Female0:20:58 7.3 36864
HOUSTON Moon#423Female 50+0:20:58 7.3 3694
SMITH Paul#673Male 50+0:21:00 7.3 37029
JACKSON Karen#391Senior Female0:21:02 7.3 37165
FRASER Jodie#413Senior Female0:21:03 7.3 37266
MANNING John#218Senior Male0:21:04 7.3 373167
ASBURY Lyle#170Senior Male0:21:05 7.3 374168
FRANGALAS Gary#98Senior Male0:21:05 7.3 375169
BURROW Jennifer#431Senior Female0:21:05 7.3 37667
TYRRELL Sarah#420Senior Female0:21:06 7.3 37768
JONES Zach#758Junior Male0:21:10 7.2 37832
MARSHALL Sarah#419Senior Female0:21:11 7.2 37969
FISHER Simon#217Senior Male0:21:13 7.2 380170
COMMERFORD Kahli#439Junior Female0:21:13 7.2 38118
GEITZ Jessie#353Senior Female0:21:13 7.2 38270
LEWIS Kierew#154Senior Male0:21:14 7.2 383171
BRIGGS Stephen#74740-49 Male0:21:14 7.2 38452
CICCONE Joseph#760Junior Male0:21:17 7.2 38533
BREMNER James#73Senior Male0:21:18 7.2 386172
HOOPER Mick#659Male 50+0:21:18 7.2 38730
BAXTER Virginia#43340-49 Female0:21:19 7.2 3889
DWYER Deanne#501Senior Female0:21:20 7.2 38971
MACARTNEY Aimee#417Senior Female0:21:20 7.2 39072
HOPKINS Barry#705Male 50+0:21:21 7.2 39131
CAIN Greg#669Male 50+0:21:23 7.2 39232
MOORE Kellie#463Senior Female0:21:24 7.1 39373
WALDER Charles#71840-49 Male0:21:24 7.1 39453
SHAW Melanie#435Junior Female0:21:24 7.1 39519
BORN Tim#62440-49 Male0:21:25 7.1 39654
HILL Luke#73940-49 Male0:21:25 7.1 39755
DALLINGER Brian#770Male 50+0:21:28 7.1 39833
WARD Adam#61Senior Male0:21:30 7.1 399173
MC BAIN Simon#174Senior Male0:21:31 7.1 400174
CROWE Daniel#73640-49 Male0:21:31 7.1 40156
DUDLEY Graeme#64540-49 Male0:21:32 7.1 40257
HIBBIE Jenny#44840-49 Female0:21:32 7.1 40310
HALL Danni#487Senior Female0:21:32 7.1 40474
TERRILL Emily#483Junior Female0:21:35 7.1 40520
MUIR Anthony#77640-49 Male0:21:35 7.1 40658
HOFSTEE Tyson#113Senior Male0:21:36 7.1 407175
CROFT Tonia#331Junior Female0:21:37 7.1 40821
O'HARA Cameron#134Senior Male0:21:38 7.1 409176
FITZGERALD Rick#654Male 50+0:21:38 7.1 41034
COMMERFORD Lianna#438Junior Female0:21:43 7 41122
JEEVES Sheree#492Senior Female0:21:44 7 41275
O'SULLIVAN Kelly#371Senior Female0:21:53 7 41376
LLOYD Karen#340Senior Female0:21:58 7 41477
QUINN Kevin#724Male 50+0:22:03 6.9 41535
ROBERTS Christian#190Senior Male0:22:08 6.9 416177
XXX Kusnander#68040-49 Male0:22:08 6.9 41759
STEPHENS Ron#675Male 50+0:22:08 6.9 41836
CONVERY Gemma#430Senior Female0:22:09 6.9 41978
ABREHART Gary#63740-49 Male0:22:10 6.9 42060
DALTON Luke#162Senior Male0:22:11 6.9 421178
GLENN Ian#708Male 50+0:22:11 6.9 42237
ADKINS Susan#30240-49 Female0:22:12 6.9 42311
WHELAN Rebecca#366Senior Female0:22:13 6.9 42479
POSSELT Jayne#30140-49 Female0:22:15 6.9 42512
CLUGSTON Andrew#43Senior Male0:22:16 6.9 426179
BENT Stephanie#370Senior Female0:22:19 6.9 42780
LACEY Nick#65Senior Male0:22:20 6.9 428180
WRIGHT Bruce#67140-49 Male0:22:29 6.8 42961
LEA Edwina#325Junior Female0:22:34 6.8 43023
CAPLE David#763Male 50+0:22:42 6.7 43138
CHAPMAN Patricia#396Senior Female0:22:47 6.7 43281
DYKMAN Rebecca#452Senior Female0:22:52 6.7 43382
FIDGE Georgie#352Senior Female0:22:54 6.7 43483
BREWIN Dennis#769Male 50+0:22:54 6.7 43539
CONN Simon#64940-49 Male0:22:58 6.7 43662
SYME Michael#726Male 50+0:22:59 6.7 43740
REEVES Simone#345Senior Female0:22:59 6.7 43884
BOTTRELL Karen#30740-49 Female0:23:02 6.6 43913
WALMSLEY Kate#473Senior Female0:23:03 6.6 44085
MAEGHER Kerryn#488Senior Female0:23:04 6.6 44186
GREENER Simon#128Senior Male0:23:06 6.6 442181
WILLIAMS Ian#64140-49 Male0:23:09 6.6 44363
ANDERSON Lisa#30940-49 Female0:23:14 6.6 44414
GOODE Thomas#656Male 50+0:23:15 6.6 44541
POLLARD Kate#464Senior Female0:23:17 6.6 44687
LUTTICK Angela#414Senior Female0:23:18 6.6 44788
BALLANTYNE Jane#350Senior Female0:23:19 6.6 44889
GILLILAND Paula#451Senior Female0:23:25 6.5 44990
GUBBINS Matt#70040-49 Male0:23:28 6.5 45064
TERRILL Wayne#76440-49 Male0:23:37 6.5 45165
SURACE Bree#379Senior Female0:23:37 6.5 45291
DOUGHTY Jackie#31140-49 Female0:23:39 6.5 45315
LEA Steven#143Senior Male0:23:43 6.5 454182
WHELAN David#34Senior Male0:23:45 6.4 455183
TEMPLAR Fiona#31340-49 Female0:23:46 6.4 45616
PARTON Deborah#42740-49 Female0:23:48 6.4 45717
BAILEY Annie#31540-49 Female0:23:50 6.4 45818
ROBINSON Murray#70940-49 Male0:23:52 6.4 45966
DALVEAN Brooke#381Senior Female0:23:54 6.4 46092
GLENN Catherine#393Senior Female0:23:55 6.4 46193
JOHNSON Gillian#30640-49 Female0:23:57 6.4 46219
GLENN Sarah#394Senior Female0:23:59 6.4 46394
HERBERT Michael#69740-49 Male0:24:00 6.4 46467
KEWMING Robyn#491Female 50+0:24:00 6.4 4655
STEPHEN Sonya#351Senior Female0:24:01 6.4 46695
BETHELL Jeff#29Senior Male0:24:02 6.4 467184
KUEK Jess#395Senior Female0:24:04 6.4 46896
ORR Michelle#41140-49 Female0:24:08 6.3 46920
LLOYD Greg#12Senior Male0:24:10 6.3 470185
ALAN Annells#661Male 50+0:24:11 6.3 47142
SUMMERFIELD Wayne#69340-49 Male0:24:11 6.3 47268
JOHNSON Simon#152Senior Male0:24:12 6.3 473186
BAYLIS Dannielle#495Senior Female0:24:13 6.3 47497
HUMPHRYS Ruth#363Senior Female0:24:15 6.3 47598
SEAMER Jackson#678Junior Male0:24:19 6.3 47634
AUHL Barry#184Senior Male0:24:23 6.3 477187
NEIL Alison#505Senior Female0:24:23 6.3 47899
WILLIAMS Estelle#466Senior Female0:24:28 6.3 479100
PHILLIPS William#743Male 50+0:24:29 6.2 48043
MOULD Annie#347Senior Female0:24:32 6.2 481101
LEWIS Debra#41240-49 Female0:24:34 6.2 48221
DWYER Danny#74440-49 Male0:24:34 6.2 48369
TOBIAS Sean#68440-49 Male0:24:43 6.2 48470
WRIGHT Phil#77140-49 Male0:24:47 6.2 48571
LEGGETT Suzanne#318Female 50+0:24:49 6.2 4866
MC NAIR Nick#114Senior Male0:25:06 6.1 487188
GEE Ian#68340-49 Male0:25:16 6.1 48872
BRETT Shelley#367Senior Female0:25:18 6 489102
CLARK Bruce#65040-49 Male0:25:20 6 49073
EMMANOUIL Nia#368Senior Female0:25:27 6 491103
NEWNHAM Gayle#30540-49 Female0:25:35 6 49222
CRISPIN Amanda#472Senior Female0:25:36 6 493104
ASHLEY-COOPER Merrin#46040-49 Female0:25:40 6 49423
HOUSE Brian#75140-49 Male0:25:42 6 49574
SCOTT Mitchell#210Senior Male0:25:50 5.9 496189
LENZ Christophe#706Male 50+0:25:50 5.9 49744
ROBBINS Larissa#378Senior Female0:25:52 5.9 498105
HAYNE Sue#320Female 50+0:25:53 5.9 4997
WING Rebecca#357Senior Female0:25:58 5.9 500106
LOVE Glen#139Senior Male0:26:11 5.8 501190
CARLYON Kerry#387Senior Female0:26:12 5.8 502107
ENDICOTT Jorja#465Senior Female0:26:17 5.8 503108
CHAMBERS Ron#658Male 50+0:26:17 5.8 50445
FORRESTER Gillian#506Senior Female0:26:19 5.8 505109
DRAGON Natalie#453Senior Female0:26:20 5.8 506110
ROPARTZ Clare#493Senior Female0:26:24 5.8 507111
EVANS William#768Male 50+0:26:24 5.8 50846
DHARANN Ashanti#373Senior Female0:26:36 5.8 509112
JOHN Kara#436Senior Female0:26:41 5.7 510113
NEWMAN Chris#732Male 50+0:26:48 5.7 51147
NOTLEY Sharyn#400Senior Female0:27:05 5.6 512114
CRISPIN Bradley#165Senior Male0:27:07 5.6 513191
LINOSSI Alessandro#62240-49 Male0:27:33 5.6 51475
PATERSON Debra#474Senior Female0:27:46 5.5 515115
MC LATHCHLEY Edward#729Male 50+0:27:54 5.5 51648
DYNON Paul#64840-49 Male0:28:36 5.3 51776
RILEY Karen#446Senior Female0:29:03 5.3 518116
MOULD Geoffrey#725Male 50+0:29:04 5.3 51949
BURNHAM Robert#657Male 50+0:29:19 5.2 52050
TENNANT Helen#512Female 50+0:29:20 5.2 5218
STEELE Ken#73040-49 Male0:30:36 5 52277
ROSE Craig#46Senior Male0:30:45 5 523192
GERMAIN Nicole#440Senior Female0:30:56 4.9 524117
BOND Vivienne#31240-49 Female0:31:04 4.9 52524
STELMACH Wanda#319Female 50+0:31:07 4.9 5269
STUDLEY Kaitlyn#392Junior Female0:31:57 4.8 52724
WALKER Christine#399Female 50+0:32:23 4.7 52810
BATTY Deb#45640-49 Female0:32:23 4.7 52925
WILLIS Eddy#455Female 50+0:32:24 4.7 53011
KONTOGOURIS Earlene#503Female 50+0:32:56 4.6 53112
SCOTT John#77840-49 Male0:34:11 4.5 53278
HORROCKS Mark#749Male 50+0:36:23 4.2 53351
EGAN Janine#30840-49 Female0:37:09 4.1 53426
MEAGHER Jane#321Female 50+0:37:09 4.1 53513
MILLMAN Kerrie#322Female 50+0:37:09 4.1 53614
BEWLEY Rikki#317Female 50+0:38:27 4 53715